sensor_id;sensor_type;location;lat;lon;timestamp;temperature;humidity
64843;DHT22;51310;52.198;5.422;2023-01-15T00:02:09;7.50;87.90
64843;DHT22;51310;52.198;5.422;2023-01-15T00:04:37;7.50;88.70
64843;DHT22;51310;52.198;5.422;2023-01-15T00:07:02;7.70;89.30
64843;DHT22;51310;52.198;5.422;2023-01-15T00:09:28;7.80;88.30
64843;DHT22;51310;52.198;5.422;2023-01-15T00:11:54;7.50;88.60
64843;DHT22;51310;52.198;5.422;2023-01-15T00:14:20;7.50;84.00
64843;DHT22;51310;52.198;5.422;2023-01-15T00:16:49;7.50;86.00
64843;DHT22;51310;52.198;5.422;2023-01-15T00:19:15;7.50;85.40
64843;DHT22;51310;52.198;5.422;2023-01-15T00:21:41;8.90;86.10
64843;DHT22;51310;52.198;5.422;2023-01-15T00:24:08;7.50;90.00
64843;DHT22;51310;52.198;5.422;2023-01-15T00:27:12;7.50;88.20
64843;DHT22;51310;52.198;5.422;2023-01-15T00:29:56;7.50;86.80
64843;DHT22;51310;52.198;5.422;2023-01-15T00:32:22;7.50;86.10
64843;DHT22;51310;52.198;5.422;2023-01-15T00:34:51;7.50;85.20
64843;DHT22;51310;52.198;5.422;2023-01-15T00:37:17;9.50;86.60
64843;DHT22;51310;52.198;5.422;2023-01-15T00:39:42;7.50;85.60
64843;DHT22;51310;52.198;5.422;2023-01-15T00:42:10;7.40;84.20
64843;DHT22;51310;52.198;5.422;2023-01-15T00:44:36;7.50;83.10
64843;DHT22;51310;52.198;5.422;2023-01-15T00:47:02;7.50;82.60
64843;DHT22;51310;52.198;5.422;2023-01-15T00:49:28;8.70;82.60
64843;DHT22;51310;52.198;5.422;2023-01-15T00:51:54;7.50;81.30
64843;DHT22;51310;52.198;5.422;2023-01-15T00:54:19;8.60;79.80
64843;DHT22;51310;52.198;5.422;2023-01-15T00:56:45;7.50;78.80
64843;DHT22;51310;52.198;5.422;2023-01-15T00:59:11;9.30;78.10
64843;DHT22;51310;52.198;5.422;2023-01-15T01:01:38;7.50;80.90
64843;DHT22;51310;52.198;5.422;2023-01-15T01:04:03;9.40;81.40
64843;DHT22;51310;52.198;5.422;2023-01-15T01:06:29;7.50;79.00
64843;DHT22;51310;52.198;5.422;2023-01-15T01:08:55;7.50;79.20
64843;DHT22;51310;52.198;5.422;2023-01-15T01:11:23;7.50;77.20
64843;DHT22;51310;52.198;5.422;2023-01-15T01:13:52;7.50;78.90
64843;DHT22;51310;52.198;5.422;2023-01-15T01:16:28;7.50;81.40
64843;DHT22;51310;52.198;5.422;2023-01-15T01:19:02;8.70;81.00
64843;DHT22;51310;52.198;5.422;2023-01-15T01:21:43;7.30;83.20
64843;DHT22;51310;52.198;5.422;2023-01-15T01:24:10;7.40;80.80
64843;DHT22;51310;52.198;5.422;2023-01-15T01:26:38;7.40;82.00
64843;DHT22;51310;52.198;5.422;2023-01-15T01:29:03;7.40;81.70
64843;DHT22;51310;52.198;5.422;2023-01-15T01:31:29;8.40;82.90
64843;DHT22;51310;52.198;5.422;2023-01-15T01:33:57;7.40;84.40
64843;DHT22;51310;52.198;5.422;2023-01-15T01:36:28;7.40;82.40
64843;DHT22;51310;52.198;5.422;2023-01-15T01:38:59;7.30;83.60
64843;DHT22;51310;52.198;5.422;2023-01-15T01:41:25;7.30;81.80
64843;DHT22;51310;52.198;5.422;2023-01-15T01:44:03;7.30;83.40
64843;DHT22;51310;52.198;5.422;2023-01-15T01:46:48;7.30;82.50
64843;DHT22;51310;52.198;5.422;2023-01-15T01:49:14;7.30;80.40
64843;DHT22;51310;52.198;5.422;2023-01-15T01:51:44;8.10;79.30
64843;DHT22;51310;52.198;5.422;2023-01-15T01:54:17;7.40;78.90
64843;DHT22;51310;52.198;5.422;2023-01-15T01:56:47;7.30;81.00
64843;DHT22;51310;52.198;5.422;2023-01-15T01:59:15;7.30;81.90
64843;DHT22;51310;52.198;5.422;2023-01-15T02:01:43;7.30;80.90
64843;DHT22;51310;52.198;5.422;2023-01-15T02:04:09;7.30;79.60
64843;DHT22;51310;52.198;5.422;2023-01-15T02:06:37;8.50;82.30
64843;DHT22;51310;52.198;5.422;2023-01-15T02:09:05;7.20;83.10
64843;DHT22;51310;52.198;5.422;2023-01-15T02:11:32;7.20;84.00
64843;DHT22;51310;52.198;5.422;2023-01-15T02:14:09;7.20;83.20
64843;DHT22;51310;52.198;5.422;2023-01-15T02:17:05;7.20;82.60
64843;DHT22;51310;52.198;5.422;2023-01-15T02:28:37;7.50;84.70
64843;DHT22;51310;52.198;5.422;2023-01-15T02:31:33;7.10;85.70
64843;DHT22;51310;52.198;5.422;2023-01-15T02:34:12;7.10;84.40
64843;DHT22;51310;52.198;5.422;2023-01-15T02:36:48;7.00;83.30
64843;DHT22;51310;52.198;5.422;2023-01-15T02:39:19;7.10;82.40
64843;DHT22;51310;52.198;5.422;2023-01-15T02:41:49;7.00;83.30
64843;DHT22;51310;52.198;5.422;2023-01-15T02:44:20;7.00;83.80
64843;DHT22;51310;52.198;5.422;2023-01-15T02:46:49;7.00;83.10
64843;DHT22;51310;52.198;5.422;2023-01-15T02:49:18;7.00;81.90
64843;DHT22;51310;52.198;5.422;2023-01-15T02:52:03;7.10;81.40
64843;DHT22;51310;52.198;5.422;2023-01-15T02:54:43;7.10;79.90
64843;DHT22;51310;52.198;5.422;2023-01-15T02:57:13;7.10;79.00
64843;DHT22;51310;52.198;5.422;2023-01-15T02:59:44;7.10;78.00
64843;DHT22;51310;52.198;5.422;2023-01-15T03:02:23;7.20;77.80
64843;DHT22;51310;52.198;5.422;2023-01-15T03:04:59;8.60;76.20
64843;DHT22;51310;52.198;5.422;2023-01-15T03:07:51;7.10;73.60
64843;DHT22;51310;52.198;5.422;2023-01-15T03:10:32;7.10;76.10
64843;DHT22;51310;52.198;5.422;2023-01-15T03:13:12;9.00;71.80
64843;DHT22;51310;52.198;5.422;2023-01-15T03:16:03;7.10;72.40
64843;DHT22;51310;52.198;5.422;2023-01-15T03:25:02;7.10;72.60
64843;DHT22;51310;52.198;5.422;2023-01-15T03:27:52;7.10;69.50
64843;DHT22;51310;52.198;5.422;2023-01-15T03:30:22;7.10;67.90
64843;DHT22;51310;52.198;5.422;2023-01-15T03:32:48;7.20;66.90
64843;DHT22;51310;52.198;5.422;2023-01-15T03:35:50;7.10;67.90
64843;DHT22;51310;52.198;5.422;2023-01-15T03:38:25;7.00;70.00
64843;DHT22;51310;52.198;5.422;2023-01-15T03:50:41;6.70;75.40
64843;DHT22;51310;52.198;5.422;2023-01-15T03:53:21;6.70;75.50
64843;DHT22;51310;52.198;5.422;2023-01-15T04:01:07;6.70;74.90
64843;DHT22;51310;52.198;5.422;2023-01-15T04:03:36;6.70;75.80
64843;DHT22;51310;52.198;5.422;2023-01-15T04:06:04;8.70;76.20
64843;DHT22;51310;52.198;5.422;2023-01-15T04:08:38;6.80;75.60
64843;DHT22;51310;52.198;5.422;2023-01-15T04:11:05;6.80;73.50
64843;DHT22;51310;52.198;5.422;2023-01-15T04:13:31;6.70;72.90
64843;DHT22;51310;52.198;5.422;2023-01-15T04:15:57;6.90;69.60
64843;DHT22;51310;52.198;5.422;2023-01-15T04:18:23;6.80;71.50
64843;DHT22;51310;52.198;5.422;2023-01-15T04:20:49;6.90;70.60
64843;DHT22;51310;52.198;5.422;2023-01-15T04:23:15;6.80;68.80
64843;DHT22;51310;52.198;5.422;2023-01-15T04:25:41;6.80;67.40
64843;DHT22;51310;52.198;5.422;2023-01-15T04:28:07;6.90;67.70
64843;DHT22;51310;52.198;5.422;2023-01-15T04:30:34;8.00;66.90
64843;DHT22;51310;52.198;5.422;2023-01-15T04:33:01;6.90;67.30
64843;DHT22;51310;52.198;5.422;2023-01-15T04:35:27;6.80;69.60
64843;DHT22;51310;52.198;5.422;2023-01-15T04:37:59;6.80;71.60
64843;DHT22;51310;52.198;5.422;2023-01-15T04:40:25;6.70;74.20
64843;DHT22;51310;52.198;5.422;2023-01-15T04:43:10;6.70;73.00
64843;DHT22;51310;52.198;5.422;2023-01-15T04:45:55;6.70;75.90
64843;DHT22;51310;52.198;5.422;2023-01-15T04:48:22;6.70;75.70
64843;DHT22;51310;52.198;5.422;2023-01-15T04:50:48;6.80;74.80
64843;DHT22;51310;52.198;5.422;2023-01-15T04:53:15;6.80;75.00
64843;DHT22;51310;52.198;5.422;2023-01-15T04:55:40;6.80;73.10
64843;DHT22;51310;52.198;5.422;2023-01-15T04:58:06;7.50;74.60
64843;DHT22;51310;52.198;5.422;2023-01-15T05:00:32;6.70;75.50
64843;DHT22;51310;52.198;5.422;2023-01-15T05:02:57;6.90;74.60
64843;DHT22;51310;52.198;5.422;2023-01-15T05:05:23;6.60;68.00
64843;DHT22;51310;52.198;5.422;2023-01-15T05:07:49;7.50;79.70
64843;DHT22;51310;52.198;5.422;2023-01-15T05:10:15;5.80;91.70
64843;DHT22;51310;52.198;5.422;2023-01-15T05:12:40;5.80;92.90
64843;DHT22;51310;52.198;5.422;2023-01-15T05:15:06;5.80;94.80
64843;DHT22;51310;52.198;5.422;2023-01-15T05:17:33;5.80;96.40
64843;DHT22;51310;52.198;5.422;2023-01-15T05:19:58;5.80;98.40
64843;DHT22;51310;52.198;5.422;2023-01-15T05:22:24;5.80;98.50
64843;DHT22;51310;52.198;5.422;2023-01-15T05:24:50;5.90;97.90
64843;DHT22;51310;52.198;5.422;2023-01-15T05:27:16;6.00;96.40
64843;DHT22;51310;52.198;5.422;2023-01-15T05:29:41;6.00;95.90
64843;DHT22;51310;52.198;5.422;2023-01-15T05:32:07;8.00;95.00
64843;DHT22;51310;52.198;5.422;2023-01-15T05:34:33;6.10;94.30
64843;DHT22;51310;52.198;5.422;2023-01-15T05:36:58;6.20;92.30
64843;DHT22;51310;52.198;5.422;2023-01-15T05:39:24;6.20;91.30
64843;DHT22;51310;52.198;5.422;2023-01-15T05:41:50;6.30;89.40
64843;DHT22;51310;52.198;5.422;2023-01-15T05:44:23;6.30;90.00
64843;DHT22;51310;52.198;5.422;2023-01-15T05:46:55;6.30;85.90
64843;DHT22;51310;52.198;5.422;2023-01-15T05:49:24;6.20;88.00
64843;DHT22;51310;52.198;5.422;2023-01-15T05:51:52;6.20;89.50
64843;DHT22;51310;52.198;5.422;2023-01-15T05:54:25;6.20;89.30
64843;DHT22;51310;52.198;5.422;2023-01-15T05:56:53;6.20;88.20
64843;DHT22;51310;52.198;5.422;2023-01-15T05:59:21;6.20;90.00
64843;DHT22;51310;52.198;5.422;2023-01-15T06:01:48;6.20;89.30
64843;DHT22;51310;52.198;5.422;2023-01-15T06:04:15;6.10;90.30
64843;DHT22;51310;52.198;5.422;2023-01-15T06:06:47;6.20;86.40
64843;DHT22;51310;52.198;5.422;2023-01-15T06:09:14;8.00;88.00
64843;DHT22;51310;52.198;5.422;2023-01-15T06:11:40;6.00;88.90
64843;DHT22;51310;52.198;5.422;2023-01-15T06:14:06;6.00;86.60
64843;DHT22;51310;52.198;5.422;2023-01-15T06:16:32;6.00;82.70
64843;DHT22;51310;52.198;5.422;2023-01-15T06:19:03;6.00;78.90
64843;DHT22;51310;52.198;5.422;2023-01-15T06:21:31;9.10;77.30
64843;DHT22;51310;52.198;5.422;2023-01-15T06:23:58;6.10;72.30
64843;DHT22;51310;52.198;5.422;2023-01-15T06:26:24;6.10;69.90
64843;DHT22;51310;52.198;5.422;2023-01-15T06:28:50;6.10;65.50
64843;DHT22;51310;52.198;5.422;2023-01-15T06:31:19;6.10;55.00
64843;DHT22;51310;52.198;5.422;2023-01-15T06:33:46;6.00;42.80
64843;DHT22;51310;52.198;5.422;2023-01-15T06:36:14;7.40;37.50
64843;DHT22;51310;52.198;5.422;2023-01-15T06:38:43;6.10;34.20
64843;DHT22;51310;52.198;5.422;2023-01-15T06:41:13;6.00;33.80
64843;DHT22;51310;52.198;5.422;2023-01-15T06:44:05;6.00;27.50
64843;DHT22;51310;52.198;5.422;2023-01-15T06:46:50;6.00;29.00
64843;DHT22;51310;52.198;5.422;2023-01-15T06:49:36;5.90;30.60
64843;DHT22;51310;52.198;5.422;2023-01-15T06:52:03;5.80;34.90
64843;DHT22;51310;52.198;5.422;2023-01-15T06:54:29;5.80;39.10
64843;DHT22;51310;52.198;5.422;2023-01-15T06:56:55;5.80;41.90
64843;DHT22;51310;52.198;5.422;2023-01-15T06:59:20;5.80;44.80
64843;DHT22;51310;52.198;5.422;2023-01-15T07:01:46;5.80;45.90
64843;DHT22;51310;52.198;5.422;2023-01-15T07:04:13;5.80;46.00
64843;DHT22;51310;52.198;5.422;2023-01-15T07:06:39;5.80;46.00
64843;DHT22;51310;52.198;5.422;2023-01-15T07:09:05;5.80;46.90
64843;DHT22;51310;52.198;5.422;2023-01-15T07:11:31;5.80;43.60
64843;DHT22;51310;52.198;5.422;2023-01-15T07:13:56;5.80;47.30
64843;DHT22;51310;52.198;5.422;2023-01-15T07:16:34;5.70;47.80
64843;DHT22;51310;52.198;5.422;2023-01-15T07:19:01;5.70;49.30
64843;DHT22;51310;52.198;5.422;2023-01-15T07:21:28;5.80;51.90
64843;DHT22;51310;52.198;5.422;2023-01-15T07:23:54;5.80;52.00
64843;DHT22;51310;52.198;5.422;2023-01-15T07:26:23;7.80;55.80
64843;DHT22;51310;52.198;5.422;2023-01-15T07:28:49;5.80;52.50
64843;DHT22;51310;52.198;5.422;2023-01-15T07:31:15;5.80;54.20
64843;DHT22;51310;52.198;5.422;2023-01-15T07:33:40;5.80;51.10
64843;DHT22;51310;52.198;5.422;2023-01-15T07:36:06;5.80;55.20
64843;DHT22;51310;52.198;5.422;2023-01-15T07:38:32;5.70;56.60
64843;DHT22;51310;52.198;5.422;2023-01-15T07:40:59;5.70;57.10
64843;DHT22;51310;52.198;5.422;2023-01-15T07:43:44;5.70;57.60
64843;DHT22;51310;52.198;5.422;2023-01-15T07:46:29;6.40;55.50
64843;DHT22;51310;52.198;5.422;2023-01-15T07:49:13;5.60;56.20
64843;DHT22;51310;52.198;5.422;2023-01-15T07:51:57;5.60;59.10
64843;DHT22;51310;52.198;5.422;2023-01-15T07:54:23;5.60;62.40
64843;DHT22;51310;52.198;5.422;2023-01-15T07:56:51;5.60;60.70
64843;DHT22;51310;52.198;5.422;2023-01-15T07:59:18;5.60;61.70
64843;DHT22;51310;52.198;5.422;2023-01-15T08:01:44;5.60;60.00
64843;DHT22;51310;52.198;5.422;2023-01-15T08:04:10;5.60;62.00
64843;DHT22;51310;52.198;5.422;2023-01-15T08:06:36;5.60;61.70
64843;DHT22;51310;52.198;5.422;2023-01-15T08:09:03;5.70;60.60
64843;DHT22;51310;52.198;5.422;2023-01-15T08:11:31;5.80;60.00
64843;DHT22;51310;52.198;5.422;2023-01-15T08:14:16;5.90;55.20
64843;DHT22;51310;52.198;5.422;2023-01-15T08:17:00;6.00;50.40
64843;DHT22;51310;52.198;5.422;2023-01-15T08:19:26;8.20;48.90
64843;DHT22;51310;52.198;5.422;2023-01-15T08:21:54;6.70;44.60
64843;DHT22;51310;52.198;5.422;2023-01-15T08:24:22;7.40;41.40
64843;DHT22;51310;52.198;5.422;2023-01-15T08:26:48;6.40;40.70
64843;DHT22;51310;52.198;5.422;2023-01-15T08:29:14;6.40;38.60
64843;DHT22;51310;52.198;5.422;2023-01-15T08:31:39;6.40;37.40
64843;DHT22;51310;52.198;5.422;2023-01-15T08:34:06;6.40;40.40
64843;DHT22;51310;52.198;5.422;2023-01-15T08:36:32;6.40;39.80
64843;DHT22;51310;52.198;5.422;2023-01-15T08:38:58;6.40;47.80
64843;DHT22;51310;52.198;5.422;2023-01-15T08:41:24;6.30;43.90
64843;DHT22;51310;52.198;5.422;2023-01-15T08:43:50;6.20;49.20
64843;DHT22;51310;52.198;5.422;2023-01-15T08:46:15;6.20;50.00
64843;DHT22;51310;52.198;5.422;2023-01-15T08:48:41;7.90;49.10
64843;DHT22;51310;52.198;5.422;2023-01-15T08:51:08;6.40;47.20
64843;DHT22;51310;52.198;5.422;2023-01-15T08:53:35;6.50;44.60
64843;DHT22;51310;52.198;5.422;2023-01-15T08:56:02;8.30;43.50
64843;DHT22;51310;52.198;5.422;2023-01-15T08:58:29;6.70;38.50
64843;DHT22;51310;52.198;5.422;2023-01-15T09:01:03;6.80;39.40
64843;DHT22;51310;52.198;5.422;2023-01-15T09:03:30;6.90;36.60
64843;DHT22;51310;52.198;5.422;2023-01-15T09:05:58;7.10;34.60
64843;DHT22;51310;52.198;5.422;2023-01-15T09:08:25;8.70;33.60
64843;DHT22;51310;52.198;5.422;2023-01-15T09:10:59;7.10;34.80
64843;DHT22;51310;52.198;5.422;2023-01-15T09:13:27;7.00;32.90
64843;DHT22;51310;52.198;5.422;2023-01-15T09:16:00;7.10;31.60
64843;DHT22;51310;52.198;5.422;2023-01-15T09:18:28;7.10;35.40
64843;DHT22;51310;52.198;5.422;2023-01-15T09:20:55;7.10;35.40
64843;DHT22;51310;52.198;5.422;2023-01-15T09:23:20;8.60;36.10
64843;DHT22;51310;52.198;5.422;2023-01-15T09:25:54;7.20;35.20
64843;DHT22;51310;52.198;5.422;2023-01-15T09:28:21;8.30;36.40
64843;DHT22;51310;52.198;5.422;2023-01-15T09:30:47;7.20;36.10
64843;DHT22;51310;52.198;5.422;2023-01-15T09:33:13;7.20;38.40
64843;DHT22;51310;52.198;5.422;2023-01-15T09:35:40;7.20;39.80
64843;DHT22;51310;52.198;5.422;2023-01-15T09:38:09;8.20;40.20
64843;DHT22;51310;52.198;5.422;2023-01-15T09:43:53;7.20;41.20
64843;DHT22;51310;52.198;5.422;2023-01-15T09:46:34;7.20;40.00
64843;DHT22;51310;52.198;5.422;2023-01-15T09:52:29;7.20;42.60
64843;DHT22;51310;52.198;5.422;2023-01-15T09:55:12;7.20;45.00
64843;DHT22;51310;52.198;5.422;2023-01-15T09:57:42;7.10;45.90
64843;DHT22;51310;52.198;5.422;2023-01-15T10:00:19;7.20;45.60
64843;DHT22;51310;52.198;5.422;2023-01-15T10:05:53;7.30;41.50
64843;DHT22;51310;52.198;5.422;2023-01-15T10:08:35;7.40;42.00
64843;DHT22;51310;52.198;5.422;2023-01-15T10:11:13;7.40;39.90
64843;DHT22;51310;52.198;5.422;2023-01-15T10:14:42;7.30;39.10
64843;DHT22;51310;52.198;5.422;2023-01-15T10:17:38;9.20;45.10
64843;DHT22;51310;52.198;5.422;2023-01-15T10:20:44;7.20;50.70
64843;DHT22;51310;52.198;5.422;2023-01-15T10:26:37;7.10;53.30
64843;DHT22;51310;52.198;5.422;2023-01-15T10:35:39;6.80;66.50
64843;DHT22;51310;52.198;5.422;2023-01-15T10:44:09;6.90;62.60
64843;DHT22;51310;52.198;5.422;2023-01-15T10:46:45;7.00;61.40
64843;DHT22;51310;52.198;5.422;2023-01-15T10:49:18;7.10;60.50
64843;DHT22;51310;52.198;5.422;2023-01-15T10:51:54;7.30;49.80
64843;DHT22;51310;52.198;5.422;2023-01-15T10:55:17;7.30;51.90
64843;DHT22;51310;52.198;5.422;2023-01-15T10:58:02;7.40;51.30
64843;DHT22;51310;52.198;5.422;2023-01-15T11:00:38;7.40;49.30
64843;DHT22;51310;52.198;5.422;2023-01-15T11:03:11;7.40;47.50
64843;DHT22;51310;52.198;5.422;2023-01-15T11:05:42;7.30;48.50
64843;DHT22;51310;52.198;5.422;2023-01-15T11:08:25;7.30;49.40
64843;DHT22;51310;52.198;5.422;2023-01-15T11:10:56;7.40;49.70
64843;DHT22;51310;52.198;5.422;2023-01-15T11:13:25;7.40;49.20
64843;DHT22;51310;52.198;5.422;2023-01-15T11:16:20;7.40;46.80
64843;DHT22;51310;52.198;5.422;2023-01-15T11:19:33;9.20;46.20
64843;DHT22;51310;52.198;5.422;2023-01-15T11:22:05;8.00;46.50
64843;DHT22;51310;52.198;5.422;2023-01-15T11:24:36;7.50;49.00
64843;DHT22;51310;52.198;5.422;2023-01-15T11:27:14;7.50;47.50
64843;DHT22;51310;52.198;5.422;2023-01-15T11:29:43;7.50;47.50
64843;DHT22;51310;52.198;5.422;2023-01-15T11:32:32;7.50;48.10
64843;DHT22;51310;52.198;5.422;2023-01-15T11:35:13;7.40;53.20
64843;DHT22;51310;52.198;5.422;2023-01-15T11:37:40;9.10;58.60
64843;DHT22;51310;52.198;5.422;2023-01-15T11:40:21;9.30;62.00
64843;DHT22;51310;52.198;5.422;2023-01-15T11:42:50;7.30;57.10
64843;DHT22;51310;52.198;5.422;2023-01-15T11:45:46;7.40;56.40
64843;DHT22;51310;52.198;5.422;2023-01-15T11:48:45;7.40;52.80
64843;DHT22;51310;52.198;5.422;2023-01-15T11:51:37;7.50;50.20
64843;DHT22;51310;52.198;5.422;2023-01-15T11:54:11;7.50;51.20
64843;DHT22;51310;52.198;5.422;2023-01-15T11:56:44;7.60;52.10
64843;DHT22;51310;52.198;5.422;2023-01-15T11:59:14;7.60;52.80
64843;DHT22;51310;52.198;5.422;2023-01-15T12:01:59;9.00;53.10
64843;DHT22;51310;52.198;5.422;2023-01-15T12:04:40;7.50;57.90
64843;DHT22;51310;52.198;5.422;2023-01-15T12:07:19;7.60;53.80
64843;DHT22;51310;52.198;5.422;2023-01-15T12:16:47;7.60;60.30
64843;DHT22;51310;52.198;5.422;2023-01-15T12:22:52;7.50;64.90
64843;DHT22;51310;52.198;5.422;2023-01-15T12:25:43;7.50;69.60
64843;DHT22;51310;52.198;5.422;2023-01-15T12:28:36;7.50;77.90
64843;DHT22;51310;52.198;5.422;2023-01-15T12:31:17;8.90;78.80
64843;DHT22;51310;52.198;5.422;2023-01-15T12:33:56;7.30;76.90
64843;DHT22;51310;52.198;5.422;2023-01-15T12:39:48;6.90;93.40
64843;DHT22;51310;52.198;5.422;2023-01-15T12:42:29;6.60;96.80
64843;DHT22;51310;52.198;5.422;2023-01-15T12:45:27;8.50;99.90
64843;DHT22;51310;52.198;5.422;2023-01-15T12:48:18;6.40;99.90
64843;DHT22;51310;52.198;5.422;2023-01-15T12:50:53;6.40;99.90
64843;DHT22;51310;52.198;5.422;2023-01-15T12:56:36;6.60;99.90
64843;DHT22;51310;52.198;5.422;2023-01-15T12:59:29;6.60;99.90
64843;DHT22;51310;52.198;5.422;2023-01-15T13:02:48;6.60;99.90
64843;DHT22;51310;52.198;5.422;2023-01-15T13:05:26;6.70;99.90
64843;DHT22;51310;52.198;5.422;2023-01-15T13:08:00;6.70;99.90
64843;DHT22;51310;52.198;5.422;2023-01-15T13:10:29;7.40;99.90
64843;DHT22;51310;52.198;5.422;2023-01-15T13:13:14;6.60;99.90
64843;DHT22;51310;52.198;5.422;2023-01-15T13:15:50;6.70;99.90
64843;DHT22;51310;52.198;5.422;2023-01-15T13:18:48;6.80;99.90
64843;DHT22;51310;52.198;5.422;2023-01-15T13:21:24;6.80;99.90
64843;DHT22;51310;52.198;5.422;2023-01-15T13:30:34;7.00;97.40
64843;DHT22;51310;52.198;5.422;2023-01-15T13:36:05;7.20;93.70
64843;DHT22;51310;52.198;5.422;2023-01-15T13:38:49;7.40;93.30
64843;DHT22;51310;52.198;5.422;2023-01-15T13:41:23;7.30;92.60
64843;DHT22;51310;52.198;5.422;2023-01-15T13:44:26;7.30;93.10
64843;DHT22;51310;52.198;5.422;2023-01-15T13:47:09;7.30;92.60
64843;DHT22;51310;52.198;5.422;2023-01-15T13:49:40;7.30;92.80
64843;DHT22;51310;52.198;5.422;2023-01-15T13:52:30;7.30;91.80
64843;DHT22;51310;52.198;5.422;2023-01-15T13:55:12;8.10;90.20
64843;DHT22;51310;52.198;5.422;2023-01-15T13:58:25;7.30;90.70
64843;DHT22;51310;52.198;5.422;2023-01-15T14:01:21;8.50;91.80
64843;DHT22;51310;52.198;5.422;2023-01-15T14:04:16;7.30;91.90
64843;DHT22;51310;52.198;5.422;2023-01-15T14:06:46;7.30;92.70
64843;DHT22;51310;52.198;5.422;2023-01-15T14:09:26;7.30;92.50
64843;DHT22;51310;52.198;5.422;2023-01-15T14:18:03;7.20;92.90
64843;DHT22;51310;52.198;5.422;2023-01-15T14:21:19;7.30;94.20
64843;DHT22;51310;52.198;5.422;2023-01-15T14:24:22;7.30;93.70
64843;DHT22;51310;52.198;5.422;2023-01-15T14:26:58;7.30;93.70
64843;DHT22;51310;52.198;5.422;2023-01-15T14:35:44;7.50;92.30
64843;DHT22;51310;52.198;5.422;2023-01-15T14:38:22;7.50;92.60
64843;DHT22;51310;52.198;5.422;2023-01-15T14:40:55;7.60;91.50
64843;DHT22;51310;52.198;5.422;2023-01-15T14:43:29;9.30;87.50
64843;DHT22;51310;52.198;5.422;2023-01-15T14:46:14;7.60;89.20
64843;DHT22;51310;52.198;5.422;2023-01-15T14:48:49;7.50;87.70
64843;DHT22;51310;52.198;5.422;2023-01-15T14:51:30;7.50;88.30
64843;DHT22;51310;52.198;5.422;2023-01-15T14:54:10;7.40;90.40
64843;DHT22;51310;52.198;5.422;2023-01-15T14:56:48;7.40;91.60
64843;DHT22;51310;52.198;5.422;2023-01-15T14:59:41;7.30;93.10
64843;DHT22;51310;52.198;5.422;2023-01-15T15:02:23;7.30;94.20
64843;DHT22;51310;52.198;5.422;2023-01-15T15:04:57;7.30;93.60
64843;DHT22;51310;52.198;5.422;2023-01-15T15:07:26;7.30;94.20
64843;DHT22;51310;52.198;5.422;2023-01-15T15:10:26;7.30;94.80
64843;DHT22;51310;52.198;5.422;2023-01-15T15:16:19;7.30;93.80
64843;DHT22;51310;52.198;5.422;2023-01-15T15:19:10;7.40;91.70
64843;DHT22;51310;52.198;5.422;2023-01-15T15:21:43;7.40;93.30
64843;DHT22;51310;52.198;5.422;2023-01-15T15:24:22;7.40;93.00
64843;DHT22;51310;52.198;5.422;2023-01-15T15:26:52;7.60;91.30
64843;DHT22;51310;52.198;5.422;2023-01-15T15:29:19;7.40;85.40
64843;DHT22;51310;52.198;5.422;2023-01-15T15:31:51;7.40;88.80
64843;DHT22;51310;52.198;5.422;2023-01-15T15:34:37;7.40;89.40
64843;DHT22;51310;52.198;5.422;2023-01-15T15:37:14;9.30;90.00
64843;DHT22;51310;52.198;5.422;2023-01-15T15:39:59;8.50;84.60
64843;DHT22;51310;52.198;5.422;2023-01-15T15:43:02;7.30;80.80
64843;DHT22;51310;52.198;5.422;2023-01-15T15:45:52;7.30;77.30
64843;DHT22;51310;52.198;5.422;2023-01-15T15:48:38;8.50;83.40
64843;DHT22;51310;52.198;5.422;2023-01-15T15:54:23;7.30;88.30
64843;DHT22;51310;52.198;5.422;2023-01-15T15:57:21;7.30;91.50
64843;DHT22;51310;52.198;5.422;2023-01-15T15:59:49;7.30;93.00
64843;DHT22;51310;52.198;5.422;2023-01-15T16:02:33;7.20;94.00
64843;DHT22;51310;52.198;5.422;2023-01-15T16:07:52;7.30;93.00
64843;DHT22;51310;52.198;5.422;2023-01-15T16:10:29;7.40;91.60
64843;DHT22;51310;52.198;5.422;2023-01-15T16:13:02;7.00;91.60
64843;DHT22;51310;52.198;5.422;2023-01-15T16:15:34;8.10;93.30
64843;DHT22;51310;52.198;5.422;2023-01-15T16:18:04;6.20;97.90
64843;DHT22;51310;52.198;5.422;2023-01-15T16:20:31;5.60;99.90
64843;DHT22;51310;52.198;5.422;2023-01-15T16:23:03;5.30;99.90
64843;DHT22;51310;52.198;5.422;2023-01-15T16:25:35;5.30;99.90
64843;DHT22;51310;52.198;5.422;2023-01-15T16:28:05;5.30;99.90
64843;DHT22;51310;52.198;5.422;2023-01-15T16:30:32;5.40;99.90
64843;DHT22;51310;52.198;5.422;2023-01-15T16:33:06;5.50;99.90
64843;DHT22;51310;52.198;5.422;2023-01-15T16:35:35;5.50;99.90
64843;DHT22;51310;52.198;5.422;2023-01-15T16:38:02;7.30;99.90
64843;DHT22;51310;52.198;5.422;2023-01-15T16:40:36;5.60;99.90
64843;DHT22;51310;52.198;5.422;2023-01-15T16:46:00;5.40;99.90
64843;DHT22;51310;52.198;5.422;2023-01-15T16:48:31;5.30;99.90
64843;DHT22;51310;52.198;5.422;2023-01-15T16:51:39;5.40;99.90
64843;DHT22;51310;52.198;5.422;2023-01-15T16:57:03;5.30;99.90
64843;DHT22;51310;52.198;5.422;2023-01-15T17:02:20;6.00;99.90
64843;DHT22;51310;52.198;5.422;2023-01-15T17:04:46;5.40;99.90
64843;DHT22;51310;52.198;5.422;2023-01-15T17:09:46;5.40;99.90
64843;DHT22;51310;52.198;5.422;2023-01-15T17:12:29;5.40;99.90
64843;DHT22;51310;52.198;5.422;2023-01-15T17:20:12;5.40;99.90
64843;DHT22;51310;52.198;5.422;2023-01-15T17:22:41;5.40;99.90
64843;DHT22;51310;52.198;5.422;2023-01-15T17:25:26;5.40;99.90
64843;DHT22;51310;52.198;5.422;2023-01-15T17:27:56;5.50;99.90
64843;DHT22;51310;52.198;5.422;2023-01-15T17:30:24;5.60;99.90
64843;DHT22;51310;52.198;5.422;2023-01-15T17:33:00;5.60;99.90
64843;DHT22;51310;52.198;5.422;2023-01-15T17:35:29;5.60;99.90
64843;DHT22;51310;52.198;5.422;2023-01-15T17:37:56;7.10;99.90
64843;DHT22;51310;52.198;5.422;2023-01-15T17:40:22;5.70;99.90
64843;DHT22;51310;52.198;5.422;2023-01-15T17:42:49;7.80;99.90
64843;DHT22;51310;52.198;5.422;2023-01-15T17:45:20;5.60;99.90
64843;DHT22;51310;52.198;5.422;2023-01-15T17:47:48;5.70;99.90
64843;DHT22;51310;52.198;5.422;2023-01-15T17:50:14;5.60;99.90
64843;DHT22;51310;52.198;5.422;2023-01-15T17:52:41;5.60;99.90
64843;DHT22;51310;52.198;5.422;2023-01-15T17:55:12;5.70;99.90
64843;DHT22;51310;52.198;5.422;2023-01-15T17:57:58;5.60;99.90
64843;DHT22;51310;52.198;5.422;2023-01-15T18:00:42;5.60;99.90
64843;DHT22;51310;52.198;5.422;2023-01-15T18:03:27;5.60;99.90
64843;DHT22;51310;52.198;5.422;2023-01-15T18:06:13;5.60;99.90
64843;DHT22;51310;52.198;5.422;2023-01-15T18:08:46;5.60;99.90
64843;DHT22;51310;52.198;5.422;2023-01-15T18:11:16;5.70;99.90
64843;DHT22;51310;52.198;5.422;2023-01-15T18:13:43;5.70;99.90
64843;DHT22;51310;52.198;5.422;2023-01-15T18:16:09;5.60;99.90
64843;DHT22;51310;52.198;5.422;2023-01-15T18:18:34;5.60;99.90
64843;DHT22;51310;52.198;5.422;2023-01-15T18:21:01;5.60;99.90
64843;DHT22;51310;52.198;5.422;2023-01-15T18:23:28;5.60;99.90
64843;DHT22;51310;52.198;5.422;2023-01-15T18:26:01;5.50;99.90
64843;DHT22;51310;52.198;5.422;2023-01-15T18:28:33;5.50;99.90